sensor_id;sensor_type;location;lat;lon;timestamp;temperature;humidity
262;DHT22;114;48.260;10.988;2022-09-01T00:01:42;15.30;99.90
262;DHT22;114;48.260;10.988;2022-09-01T00:04:10;15.30;99.90
262;DHT22;114;48.260;10.988;2022-09-01T00:06:37;15.30;99.90
262;DHT22;114;48.260;10.988;2022-09-01T00:09:08;15.30;99.90
262;DHT22;114;48.260;10.988;2022-09-01T00:11:35;15.20;99.90
262;DHT22;114;48.260;10.988;2022-09-01T00:14:02;15.20;99.90
262;DHT22;114;48.260;10.988;2022-09-01T00:16:30;15.20;99.90
262;DHT22;114;48.260;10.988;2022-09-01T00:18:57;15.20;99.90
262;DHT22;114;48.260;10.988;2022-09-01T00:21:29;15.20;99.90
262;DHT22;114;48.260;10.988;2022-09-01T00:23:56;15.20;99.90
262;DHT22;114;48.260;10.988;2022-09-01T00:26:22;15.20;99.90
262;DHT22;114;48.260;10.988;2022-09-01T00:28:48;15.10;99.90
262;DHT22;114;48.260;10.988;2022-09-01T00:31:15;15.00;99.90
262;DHT22;114;48.260;10.988;2022-09-01T00:33:41;15.00;99.90
262;DHT22;114;48.260;10.988;2022-09-01T00:36:07;15.00;99.90
262;DHT22;114;48.260;10.988;2022-09-01T00:38:33;15.00;99.90
262;DHT22;114;48.260;10.988;2022-09-01T00:41:00;15.00;99.90
262;DHT22;114;48.260;10.988;2022-09-01T00:46:24;15.00;99.90
262;DHT22;114;48.260;10.988;2022-09-01T00:49:15;15.00;99.90
262;DHT22;114;48.260;10.988;2022-09-01T00:51:44;15.00;99.90
262;DHT22;114;48.260;10.988;2022-09-01T00:54:18;15.00;99.90
262;DHT22;114;48.260;10.988;2022-09-01T00:56:45;14.90;99.90
262;DHT22;114;48.260;10.988;2022-09-01T00:59:12;14.90;99.90
262;DHT22;114;48.260;10.988;2022-09-01T01:01:39;15.00;99.90
262;DHT22;114;48.260;10.988;2022-09-01T01:04:07;15.00;99.90
262;DHT22;114;48.260;10.988;2022-09-01T01:06:44;15.00;99.90
262;DHT22;114;48.260;10.988;2022-09-01T01:09:18;14.90;99.90
262;DHT22;114;48.260;10.988;2022-09-01T01:11:45;15.00;99.90
262;DHT22;114;48.260;10.988;2022-09-01T01:14:14;14.90;99.90
262;DHT22;114;48.260;10.988;2022-09-01T01:16:44;14.90;99.90
262;DHT22;114;48.260;10.988;2022-09-01T01:19:22;14.90;99.90
262;DHT22;114;48.260;10.988;2022-09-01T01:22:13;14.90;99.90
262;DHT22;114;48.260;10.988;2022-09-01T01:24:59;14.90;99.90
262;DHT22;114;48.260;10.988;2022-09-01T01:27:31;14.90;99.90
262;DHT22;114;48.260;10.988;2022-09-01T01:30:03;14.80;99.90
262;DHT22;114;48.260;10.988;2022-09-01T01:32:29;14.80;99.90
262;DHT22;114;48.260;10.988;2022-09-01T01:34:55;14.80;99.90
262;DHT22;114;48.260;10.988;2022-09-01T01:37:22;14.80;99.90
262;DHT22;114;48.260;10.988;2022-09-01T01:39:50;14.80;99.90
262;DHT22;114;48.260;10.988;2022-09-01T01:42:16;14.70;99.90
262;DHT22;114;48.260;10.988;2022-09-01T01:44:42;14.80;99.90
262;DHT22;114;48.260;10.988;2022-09-01T01:47:11;14.80;99.90
262;DHT22;114;48.260;10.988;2022-09-01T01:49:39;14.80;99.90
262;DHT22;114;48.260;10.988;2022-09-01T01:52:12;14.80;99.90
262;DHT22;114;48.260;10.988;2022-09-01T01:54:43;14.80;99.90
262;DHT22;114;48.260;10.988;2022-09-01T01:57:11;14.80;99.90
262;DHT22;114;48.260;10.988;2022-09-01T01:59:44;14.80;99.90
262;DHT22;114;48.260;10.988;2022-09-01T02:02:10;14.80;99.90
262;DHT22;114;48.260;10.988;2022-09-01T02:04:37;14.80;99.90
262;DHT22;114;48.260;10.988;2022-09-01T02:07:08;14.80;99.90
262;DHT22;114;48.260;10.988;2022-09-01T02:09:36;14.80;99.90
262;DHT22;114;48.260;10.988;2022-09-01T02:12:06;14.70;99.90
262;DHT22;114;48.260;10.988;2022-09-01T02:14:32;14.70;99.90
262;DHT22;114;48.260;10.988;2022-09-01T02:16:58;14.60;99.90
262;DHT22;114;48.260;10.988;2022-09-01T02:19:28;14.70;99.90
262;DHT22;114;48.260;10.988;2022-09-01T02:21:54;14.70;99.90
262;DHT22;114;48.260;10.988;2022-09-01T02:24:21;14.70;99.90
262;DHT22;114;48.260;10.988;2022-09-01T02:26:48;14.70;99.90
262;DHT22;114;48.260;10.988;2022-09-01T02:29:20;14.60;99.90
262;DHT22;114;48.260;10.988;2022-09-01T02:31:52;14.60;99.90
262;DHT22;114;48.260;10.988;2022-09-01T02:34:18;14.60;99.90
262;DHT22;114;48.260;10.988;2022-09-01T02:36:47;14.60;99.90
262;DHT22;114;48.260;10.988;2022-09-01T02:39:17;14.60;99.90
262;DHT22;114;48.260;10.988;2022-09-01T02:41:44;14.60;99.90
262;DHT22;114;48.260;10.988;2022-09-01T02:44:10;14.70;99.90
262;DHT22;114;48.260;10.988;2022-09-01T02:46:41;14.70;99.50
262;DHT22;114;48.260;10.988;2022-09-01T02:49:13;14.70;99.40
262;DHT22;114;48.260;10.988;2022-09-01T02:51:46;14.70;99.10
262;DHT22;114;48.260;10.988;2022-09-01T02:54:14;14.70;97.80
262;DHT22;114;48.260;10.988;2022-09-01T02:56:43;14.70;97.90
262;DHT22;114;48.260;10.988;2022-09-01T02:59:17;14.60;97.60
262;DHT22;114;48.260;10.988;2022-09-01T03:01:47;14.60;97.30
262;DHT22;114;48.260;10.988;2022-09-01T03:04:14;14.70;97.60
262;DHT22;114;48.260;10.988;2022-09-01T03:06:41;14.70;97.60
262;DHT22;114;48.260;10.988;2022-09-01T03:09:10;14.70;97.20
262;DHT22;114;48.260;10.988;2022-09-01T03:11:38;14.70;97.40
262;DHT22;114;48.260;10.988;2022-09-01T03:14:05;14.70;97.30
262;DHT22;114;48.260;10.988;2022-09-01T03:16:32;14.60;97.30
262;DHT22;114;48.260;10.988;2022-09-01T03:18:59;14.60;96.90
262;DHT22;114;48.260;10.988;2022-09-01T03:21:25;14.50;96.70
262;DHT22;114;48.260;10.988;2022-09-01T03:23:51;14.50;97.00
262;DHT22;114;48.260;10.988;2022-09-01T03:26:18;14.50;97.60
262;DHT22;114;48.260;10.988;2022-09-01T03:28:48;14.40;97.60
262;DHT22;114;48.260;10.988;2022-09-01T03:31:14;14.40;98.00
262;DHT22;114;48.260;10.988;2022-09-01T03:33:40;14.40;98.30
262;DHT22;114;48.260;10.988;2022-09-01T03:36:06;14.40;98.40
262;DHT22;114;48.260;10.988;2022-09-01T03:38:34;14.40;98.80
262;DHT22;114;48.260;10.988;2022-09-01T03:41:02;14.40;99.20
262;DHT22;114;48.260;10.988;2022-09-01T03:43:29;14.30;99.50
262;DHT22;114;48.260;10.988;2022-09-01T03:45:57;14.30;99.50
262;DHT22;114;48.260;10.988;2022-09-01T03:48:27;14.30;99.90
262;DHT22;114;48.260;10.988;2022-09-01T03:50:55;14.30;99.90
262;DHT22;114;48.260;10.988;2022-09-01T03:53:24;14.30;99.90
262;DHT22;114;48.260;10.988;2022-09-01T03:55:52;14.30;99.90
262;DHT22;114;48.260;10.988;2022-09-01T03:58:20;14.20;99.90
262;DHT22;114;48.260;10.988;2022-09-01T04:00:50;14.20;99.90
262;DHT22;114;48.260;10.988;2022-09-01T04:03:20;14.20;99.90
262;DHT22;114;48.260;10.988;2022-09-01T04:05:48;14.20;99.90
262;DHT22;114;48.260;10.988;2022-09-01T04:08:15;14.20;99.90
262;DHT22;114;48.260;10.988;2022-09-01T04:10:47;14.20;99.90
262;DHT22;114;48.260;10.988;2022-09-01T04:13:22;14.20;99.90
262;DHT22;114;48.260;10.988;2022-09-01T04:15:49;14.20;99.90
262;DHT22;114;48.260;10.988;2022-09-01T04:18:16;14.10;99.90
262;DHT22;114;48.260;10.988;2022-09-01T04:20:47;14.10;99.90
262;DHT22;114;48.260;10.988;2022-09-01T04:26:04;14.10;99.90
262;DHT22;114;48.260;10.988;2022-09-01T04:28:39;14.10;99.90
262;DHT22;114;48.260;10.988;2022-09-01T04:31:09;14.10;99.90
262;DHT22;114;48.260;10.988;2022-09-01T04:33:39;14.10;99.90
262;DHT22;114;48.260;10.988;2022-09-01T04:36:13;14.10;99.90
262;DHT22;114;48.260;10.988;2022-09-01T04:38:39;14.10;99.90
262;DHT22;114;48.260;10.988;2022-09-01T04:41:06;14.10;99.90
262;DHT22;114;48.260;10.988;2022-09-01T04:43:33;14.10;99.90
262;DHT22;114;48.260;10.988;2022-09-01T04:46:00;14.10;99.90
262;DHT22;114;48.260;10.988;2022-09-01T04:48:27;14.10;99.90
262;DHT22;114;48.260;10.988;2022-09-01T04:50:53;14.10;99.90
262;DHT22;114;48.260;10.988;2022-09-01T04:53:21;14.20;99.90
262;DHT22;114;48.260;10.988;2022-09-01T04:55:47;14.10;99.90
262;DHT22;114;48.260;10.988;2022-09-01T04:58:16;14.20;99.90
262;DHT22;114;48.260;10.988;2022-09-01T05:00:48;14.10;99.80
262;DHT22;114;48.260;10.988;2022-09-01T05:03:16;14.30;99.90
262;DHT22;114;48.260;10.988;2022-09-01T05:05:45;14.30;99.90
262;DHT22;114;48.260;10.988;2022-09-01T05:08:16;14.20;99.70
262;DHT22;114;48.260;10.988;2022-09-01T05:10:46;14.20;99.70
262;DHT22;114;48.260;10.988;2022-09-01T05:13:14;14.30;99.90
262;DHT22;114;48.260;10.988;2022-09-01T05:15:44;14.40;99.90
262;DHT22;114;48.260;10.988;2022-09-01T05:20:39;14.30;99.00
262;DHT22;114;48.260;10.988;2022-09-01T05:23:08;14.30;98.80
262;DHT22;114;48.260;10.988;2022-09-01T05:25:40;14.30;98.10
262;DHT22;114;48.260;10.988;2022-09-01T05:28:06;14.40;97.60
262;DHT22;114;48.260;10.988;2022-09-01T05:30:35;14.40;97.70
262;DHT22;114;48.260;10.988;2022-09-01T05:33:01;14.40;97.50
262;DHT22;114;48.260;10.988;2022-09-01T05:35:27;14.40;97.30
262;DHT22;114;48.260;10.988;2022-09-01T05:37:55;14.50;97.50
262;DHT22;114;48.260;10.988;2022-09-01T05:40:24;14.50;97.00
262;DHT22;114;48.260;10.988;2022-09-01T05:42:49;14.60;96.70
262;DHT22;114;48.260;10.988;2022-09-01T05:45:20;14.60;96.00
262;DHT22;114;48.260;10.988;2022-09-01T05:47:51;14.70;96.00
262;DHT22;114;48.260;10.988;2022-09-01T05:50:19;14.60;95.20
262;DHT22;114;48.260;10.988;2022-09-01T05:52:45;14.70;95.70
262;DHT22;114;48.260;10.988;2022-09-01T05:55:12;14.80;94.60
262;DHT22;114;48.260;10.988;2022-09-01T05:57:40;14.90;94.50
262;DHT22;114;48.260;10.988;2022-09-01T06:00:08;15.00;92.90
262;DHT22;114;48.260;10.988;2022-09-01T06:02:40;15.10;92.20
262;DHT22;114;48.260;10.988;2022-09-01T06:05:07;15.30;92.30
262;DHT22;114;48.260;10.988;2022-09-01T06:07:33;15.30;88.10
262;DHT22;114;48.260;10.988;2022-09-01T06:10:03;15.30;89.90
262;DHT22;114;48.260;10.988;2022-09-01T06:12:29;15.30;87.10
262;DHT22;114;48.260;10.988;2022-09-01T06:14:55;15.40;89.40
262;DHT22;114;48.260;10.988;2022-09-01T06:17:23;15.30;83.50
262;DHT22;114;48.260;10.988;2022-09-01T06:19:51;15.40;81.80
262;DHT22;114;48.260;10.988;2022-09-01T06:22:18;15.50;83.90
262;DHT22;114;48.260;10.988;2022-09-01T06:24:45;15.40;74.70
262;DHT22;114;48.260;10.988;2022-09-01T06:27:13;15.40;77.40
262;DHT22;114;48.260;10.988;2022-09-01T06:29:45;15.50;78.40
262;DHT22;114;48.260;10.988;2022-09-01T06:32:13;15.60;74.80
262;DHT22;114;48.260;10.988;2022-09-01T06:34:43;15.60;74.70
262;DHT22;114;48.260;10.988;2022-09-01T06:37:12;15.60;71.70
262;DHT22;114;48.260;10.988;2022-09-01T06:39:39;15.70;75.90
262;DHT22;114;48.260;10.988;2022-09-01T06:42:04;15.90;73.50
262;DHT22;114;48.260;10.988;2022-09-01T06:44:31;15.90;70.50
262;DHT22;114;48.260;10.988;2022-09-01T06:46:57;15.90;66.00
262;DHT22;114;48.260;10.988;2022-09-01T06:49:26;16.00;64.50
262;DHT22;114;48.260;10.988;2022-09-01T06:52:03;15.90;60.90
262;DHT22;114;48.260;10.988;2022-09-01T06:54:31;15.90;58.00
262;DHT22;114;48.260;10.988;2022-09-01T06:57:03;15.90;56.40
262;DHT22;114;48.260;10.988;2022-09-01T06:59:30;15.80;55.80
262;DHT22;114;48.260;10.988;2022-09-01T07:01:58;15.70;56.10
262;DHT22;114;48.260;10.988;2022-09-01T07:04:26;15.70;59.00
262;DHT22;114;48.260;10.988;2022-09-01T07:06:54;15.70;57.80
262;DHT22;114;48.260;10.988;2022-09-01T07:09:22;15.90;61.90
262;DHT22;114;48.260;10.988;2022-09-01T07:11:49;16.00;60.20
262;DHT22;114;48.260;10.988;2022-09-01T07:14:15;16.10;57.10
262;DHT22;114;48.260;10.988;2022-09-01T07:16:41;16.20;51.70
262;DHT22;114;48.260;10.988;2022-09-01T07:19:10;16.30;48.70
262;DHT22;114;48.260;10.988;2022-09-01T07:21:38;16.30;47.60
262;DHT22;114;48.260;10.988;2022-09-01T07:24:04;16.30;45.30
262;DHT22;114;48.260;10.988;2022-09-01T07:26:33;16.30;47.10
262;DHT22;114;48.260;10.988;2022-09-01T07:29:01;16.40;43.20
262;DHT22;114;48.260;10.988;2022-09-01T07:31:38;16.60;41.50
262;DHT22;114;48.260;10.988;2022-09-01T07:34:08;16.60;37.80
262;DHT22;114;48.260;10.988;2022-09-01T07:36:35;16.80;41.20
262;DHT22;114;48.260;10.988;2022-09-01T07:39:04;16.70;37.60
262;DHT22;114;48.260;10.988;2022-09-01T07:41:30;16.70;34.60
262;DHT22;114;48.260;10.988;2022-09-01T07:43:57;16.80;38.30
262;DHT22;114;48.260;10.988;2022-09-01T07:46:26;16.50;35.50
262;DHT22;114;48.260;10.988;2022-09-01T07:48:54;16.60;34.60
262;DHT22;114;48.260;10.988;2022-09-01T07:51:22;16.50;37.30
262;DHT22;114;48.260;10.988;2022-09-01T07:53:48;16.90;32.30
262;DHT22;114;48.260;10.988;2022-09-01T07:56:17;16.90;31.60
262;DHT22;114;48.260;10.988;2022-09-01T07:58:45;16.90;30.60
262;DHT22;114;48.260;10.988;2022-09-01T08:01:17;16.80;32.80
262;DHT22;114;48.260;10.988;2022-09-01T08:03:52;16.90;32.20
262;DHT22;114;48.260;10.988;2022-09-01T08:06:20;16.70;31.90
262;DHT22;114;48.260;10.988;2022-09-01T08:08:48;16.80;37.50
262;DHT22;114;48.260;10.988;2022-09-01T08:11:21;16.90;32.70
262;DHT22;114;48.260;10.988;2022-09-01T08:13:50;17.10;28.40
262;DHT22;114;48.260;10.988;2022-09-01T08:16:17;17.20;27.80
262;DHT22;114;48.260;10.988;2022-09-01T08:18:43;17.20;28.50
262;DHT22;114;48.260;10.988;2022-09-01T08:21:11;17.20;30.20
262;DHT22;114;48.260;10.988;2022-09-01T08:23:38;17.40;28.70
262;DHT22;114;48.260;10.988;2022-09-01T08:26:09;17.40;27.50
262;DHT22;114;48.260;10.988;2022-09-01T08:28:36;17.40;27.40
262;DHT22;114;48.260;10.988;2022-09-01T08:31:13;17.30;26.80
262;DHT22;114;48.260;10.988;2022-09-01T08:33:41;17.10;29.00
262;DHT22;114;48.260;10.988;2022-09-01T08:36:09;17.20;29.20
262;DHT22;114;48.260;10.988;2022-09-01T08:38:36;17.40;27.20
262;DHT22;114;48.260;10.988;2022-09-01T08:41:03;17.50;24.80
262;DHT22;114;48.260;10.988;2022-09-01T08:43:46;17.70;21.60
262;DHT22;114;48.260;10.988;2022-09-01T08:46:22;18.00;21.00
262;DHT22;114;48.260;10.988;2022-09-01T08:48:58;18.50;17.60
262;DHT22;114;48.260;10.988;2022-09-01T08:54:30;18.50;14.90
262;DHT22;114;48.260;10.988;2022-09-01T08:57:00;18.40;14.30
262;DHT22;114;48.260;10.988;2022-09-01T08:59:26;18.60;13.70
262;DHT22;114;48.260;10.988;2022-09-01T09:01:59;18.70;11.80
262;DHT22;114;48.260;10.988;2022-09-01T09:07:16;19.40;5.10
262;DHT22;114;48.260;10.988;2022-09-01T09:09:56;19.60;5.10
262;DHT22;114;48.260;10.988;2022-09-01T09:17:37;20.20;1.40
262;DHT22;114;48.260;10.988;2022-09-01T09:20:05;20.30;1.00
262;DHT22;114;48.260;10.988;2022-09-01T09:22:32;20.10;1.00
262;DHT22;114;48.260;10.988;2022-09-01T09:25:11;19.80;1.00
262;DHT22;114;48.260;10.988;2022-09-01T09:27:49;19.80;1.00
262;DHT22;114;48.260;10.988;2022-09-01T09:30:26;19.50;1.00
262;DHT22;114;48.260;10.988;2022-09-01T09:35:36;19.40;2.90
262;DHT22;114;48.260;10.988;2022-09-01T09:41:20;19.80;1.00
262;DHT22;114;48.260;10.988;2022-09-01T09:44:14;19.90;1.00
262;DHT22;114;48.260;10.988;2022-09-01T09:46:44;19.90;1.00
262;DHT22;114;48.260;10.988;2022-09-01T09:51:43;19.90;1.00
262;DHT22;114;48.260;10.988;2022-09-01T09:56:41;19.60;1.00
262;DHT22;114;48.260;10.988;2022-09-01T09:59:26;19.90;1.00
262;DHT22;114;48.260;10.988;2022-09-01T10:02:06;20.10;1.00
262;DHT22;114;48.260;10.988;2022-09-01T10:04:39;20.20;1.00
262;DHT22;114;48.260;10.988;2022-09-01T10:07:29;20.40;1.00
262;DHT22;114;48.260;10.988;2022-09-01T10:09:58;20.90;1.00
262;DHT22;114;48.260;10.988;2022-09-01T10:12:26;21.30;1.00
262;DHT22;114;48.260;10.988;2022-09-01T10:15:09;20.90;1.00
262;DHT22;114;48.260;10.988;2022-09-01T10:17:41;20.70;1.00
262;DHT22;114;48.260;10.988;2022-09-01T10:20:18;20.90;1.00
262;DHT22;114;48.260;10.988;2022-09-01T10:22:48;21.00;1.00
262;DHT22;114;48.260;10.988;2022-09-01T10:25:21;20.90;1.00
262;DHT22;114;48.260;10.988;2022-09-01T10:28:07;20.50;1.00
262;DHT22;114;48.260;10.988;2022-09-01T10:30:36;21.20;1.00
262;DHT22;114;48.260;10.988;2022-09-01T10:33:08;21.50;1.00
262;DHT22;114;48.260;10.988;2022-09-01T10:35:39;21.70;1.00
262;DHT22;114;48.260;10.988;2022-09-01T10:38:24;22.00;1.00
262;DHT22;114;48.260;10.988;2022-09-01T10:40:53;22.00;1.00
262;DHT22;114;48.260;10.988;2022-09-01T10:43:47;22.30;1.00
262;DHT22;114;48.260;10.988;2022-09-01T10:48:48;23.60;1.00
262;DHT22;114;48.260;10.988;2022-09-01T10:56:43;23.00;1.00
262;DHT22;114;48.260;10.988;2022-09-01T10:59:24;23.30;1.00
262;DHT22;114;48.260;10.988;2022-09-01T11:04:23;22.80;1.00
262;DHT22;114;48.260;10.988;2022-09-01T11:07:29;22.40;1.00
262;DHT22;114;48.260;10.988;2022-09-01T11:10:32;22.50;1.00
262;DHT22;114;48.260;10.988;2022-09-01T11:15:52;24.00;1.00
262;DHT22;114;48.260;10.988;2022-09-01T11:18:28;24.00;1.00
262;DHT22;114;48.260;10.988;2022-09-01T11:21:14;23.40;1.00
262;DHT22;114;48.260;10.988;2022-09-01T11:23:41;23.10;1.00
262;DHT22;114;48.260;10.988;2022-09-01T11:28:56;24.80;1.00
262;DHT22;114;48.260;10.988;2022-09-01T11:31:40;25.00;1.00
262;DHT22;114;48.260;10.988;2022-09-01T11:34:15;24.80;1.00
262;DHT22;114;48.260;10.988;2022-09-01T11:44:50;23.50;1.00
262;DHT22;114;48.260;10.988;2022-09-01T11:47:35;24.40;1.00
262;DHT22;114;48.260;10.988;2022-09-01T11:50:26;24.60;1.00
262;DHT22;114;48.260;10.988;2022-09-01T11:53:04;24.70;1.00
262;DHT22;114;48.260;10.988;2022-09-01T11:55:34;24.90;1.00
262;DHT22;114;48.260;10.988;2022-09-01T11:58:01;24.50;1.00
262;DHT22;114;48.260;10.988;2022-09-01T12:00:31;24.80;1.00
262;DHT22;114;48.260;10.988;2022-09-01T12:02:58;24.30;1.00
262;DHT22;114;48.260;10.988;2022-09-01T12:05:36;23.70;1.00
262;DHT22;114;48.260;10.988;2022-09-01T12:08:12;23.50;1.00
262;DHT22;114;48.260;10.988;2022-09-01T12:10:40;23.60;1.00
262;DHT22;114;48.260;10.988;2022-09-01T12:13:18;25.00;1.00
262;DHT22;114;48.260;10.988;2022-09-01T12:15:53;27.30;1.00
262;DHT22;114;48.260;10.988;2022-09-01T12:18:25;29.50;1.00
262;DHT22;114;48.260;10.988;2022-09-01T12:20:54;32.00;1.00
262;DHT22;114;48.260;10.988;2022-09-01T12:25:54;32.10;1.00
262;DHT22;114;48.260;10.988;2022-09-01T12:28:24;30.20;1.00
262;DHT22;114;48.260;10.988;2022-09-01T12:30:51;28.80;1.00
262;DHT22;114;48.260;10.988;2022-09-01T12:33:20;28.70;1.00
262;DHT22;114;48.260;10.988;2022-09-01T12:35:46;30.00;1.00
262;DHT22;114;48.260;10.988;2022-09-01T12:38:21;31.80;1.00
262;DHT22;114;48.260;10.988;2022-09-01T12:40:49;32.90;1.00
262;DHT22;114;48.260;10.988;2022-09-01T12:45:54;33.70;1.00
262;DHT22;114;48.260;10.988;2022-09-01T12:48:25;33.40;1.00
262;DHT22;114;48.260;10.988;2022-09-01T12:50:53;33.30;1.00
262;DHT22;114;48.260;10.988;2022-09-01T12:53:21;32.60;1.00
262;DHT22;114;48.260;10.988;2022-09-01T12:56:15;30.90;1.00
262;DHT22;114;48.260;10.988;2022-09-01T12:58:47;30.00;1.00
262;DHT22;114;48.260;10.988;2022-09-01T13:01:29;29.50;1.00
262;DHT22;114;48.260;10.988;2022-09-01T13:04:28;29.60;1.00
262;DHT22;114;48.260;10.988;2022-09-01T13:07:03;29.10;1.00
262;DHT22;114;48.260;10.988;2022-09-01T13:09:34;29.70;1.00
262;DHT22;114;48.260;10.988;2022-09-01T13:12:15;30.30;1.00
262;DHT22;114;48.260;10.988;2022-09-01T13:14:41;29.10;1.00
262;DHT22;114;48.260;10.988;2022-09-01T13:17:07;27.80;1.00
262;DHT22;114;48.260;10.988;2022-09-01T13:19:33;27.40;1.00
262;DHT22;114;48.260;10.988;2022-09-01T13:21:59;26.90;1.00
262;DHT22;114;48.260;10.988;2022-09-01T13:24:25;26.90;1.00
262;DHT22;114;48.260;10.988;2022-09-01T13:26:51;26.90;1.00
262;DHT22;114;48.260;10.988;2022-09-01T13:29:22;26.70;1.00
262;DHT22;114;48.260;10.988;2022-09-01T13:31:49;27.00;1.00
262;DHT22;114;48.260;10.988;2022-09-01T13:34:22;28.60;1.00
262;DHT22;114;48.260;10.988;2022-09-01T13:36:48;28.70;1.00
262;DHT22;114;48.260;10.988;2022-09-01T13:39:14;28.60;1.00
262;DHT22;114;48.260;10.988;2022-09-01T13:41:40;29.70;1.00
262;DHT22;114;48.260;10.988;2022-09-01T13:44:06;31.20;1.00
262;DHT22;114;48.260;10.988;2022-09-01T13:46:36;32.80;1.00
262;DHT22;114;48.260;10.988;2022-09-01T13:49:03;31.80;1.00
262;DHT22;114;48.260;10.988;2022-09-01T13:51:29;31.60;1.00
262;DHT22;114;48.260;10.988;2022-09-01T13:53:56;32.40;1.00
262;DHT22;114;48.260;10.988;2022-09-01T13:56:21;32.80;1.00
262;DHT22;114;48.260;10.988;2022-09-01T13:58:47;31.40;1.00
262;DHT22;114;48.260;10.988;2022-09-01T14:01:13;30.60;1.00
262;DHT22;114;48.260;10.988;2022-09-01T14:03:40;30.20;1.00
262;DHT22;114;48.260;10.988;2022-09-01T14:06:06;30.00;1.00
262;DHT22;114;48.260;10.988;2022-09-01T14:08:32;31.10;1.00
262;DHT22;114;48.260;10.988;2022-09-01T14:10:58;31.30;1.00
262;DHT22;114;48.260;10.988;2022-09-01T14:13:25;30.60;1.00
262;DHT22;114;48.260;10.988;2022-09-01T14:15:51;28.50;1.00
262;DHT22;114;48.260;10.988;2022-09-01T14:18:18;29.70;1.00
262;DHT22;114;48.260;10.988;2022-09-01T14:20:48;29.40;1.00
262;DHT22;114;48.260;10.988;2022-09-01T14:23:15;28.90;1.00
262;DHT22;114;48.260;10.988;2022-09-01T14:25:48;27.90;1.00
262;DHT22;114;48.260;10.988;2022-09-01T14:28:15;28.40;1.00
262;DHT22;114;48.260;10.988;2022-09-01T14:30:42;30.10;1.00
262;DHT22;114;48.260;10.988;2022-09-01T14:33:09;31.80;1.00
262;DHT22;114;48.260;10.988;2022-09-01T14:35:37;32.60;1.00
262;DHT22;114;48.260;10.988;2022-09-01T14:38:04;33.90;1.00
262;DHT22;114;48.260;10.988;2022-09-01T14:40:32;32.50;1.00
262;DHT22;114;48.260;10.988;2022-09-01T14:42:58;29.10;1.00
262;DHT22;114;48.260;10.988;2022-09-01T14:45:26;26.20;1.00
262;DHT22;114;48.260;10.988;2022-09-01T14:47:56;25.50;1.00
262;DHT22;114;48.260;10.988;2022-09-01T14:50:24;24.80;1.00
262;DHT22;114;48.260;10.988;2022-09-01T14:52:53;24.00;1.00
262;DHT22;114;48.260;10.988;2022-09-01T14:55:21;24.30;1.00
262;DHT22;114;48.260;10.988;2022-09-01T14:57:51;26.80;1.00
262;DHT22;114;48.260;10.988;2022-09-01T15:00:19;29.30;1.00
262;DHT22;114;48.260;10.988;2022-09-01T15:02:45;30.30;1.00
262;DHT22;114;48.260;10.988;2022-09-01T15:05:11;30.80;1.00
262;DHT22;114;48.260;10.988;2022-09-01T15:07:38;30.90;1.00
262;DHT22;114;48.260;10.988;2022-09-01T15:10:06;31.60;1.00
262;DHT22;114;48.260;10.988;2022-09-01T15:12:32;32.80;1.00
262;DHT22;114;48.260;10.988;2022-09-01T15:14:59;33.70;1.00
262;DHT22;114;48.260;10.988;2022-09-01T15:17:27;33.00;1.00
262;DHT22;114;48.260;10.988;2022-09-01T15:19:53;33.50;1.00
262;DHT22;114;48.260;10.988;2022-09-01T15:22:20;33.30;1.00
262;DHT22;114;48.260;10.988;2022-09-01T15:24:46;33.30;1.00
262;DHT22;114;48.260;10.988;2022-09-01T15:27:12;32.80;1.00
262;DHT22;114;48.260;10.988;2022-09-01T15:29:38;32.00;1.00
262;DHT22;114;48.260;10.988;2022-09-01T15:32:12;31.60;1.00
262;DHT22;114;48.260;10.988;2022-09-01T15:34:40;32.00;1.00
262;DHT22;114;48.260;10.988;2022-09-01T15:37:06;31.70;1.00
262;DHT22;114;48.260;10.988;2022-09-01T15:39:33;32.40;1.00
262;DHT22;114;48.260;10.988;2022-09-01T15:41:59;31.90;1.00
262;DHT22;114;48.260;10.988;2022-09-01T15:44:26;30.80;1.00
262;DHT22;114;48.260;10.988;2022-09-01T15:46:52;29.80;1.00
262;DHT22;114;48.260;10.988;2022-09-01T15:49:18;28.50;1.00
262;DHT22;114;48.260;10.988;2022-09-01T15:51:44;26.80;1.00
262;DHT22;114;48.260;10.988;2022-09-01T15:54:16;25.10;1.00
262;DHT22;114;48.260;10.988;2022-09-01T15:56:43;24.20;1.00
262;DHT22;114;48.260;10.988;2022-09-01T15:59:10;23.40;1.00
262;DHT22;114;48.260;10.988;2022-09-01T16:01:38;22.70;1.00
262;DHT22;114;48.260;10.988;2022-09-01T16:04:06;22.40;1.00
262;DHT22;114;48.260;10.988;2022-09-01T16:06:33;22.00;1.00
262;DHT22;114;48.260;10.988;2022-09-01T16:08:59;21.60;1.00
262;DHT22;114;48.260;10.988;2022-09-01T16:11:25;21.40;1.00
262;DHT22;114;48.260;10.988;2022-09-01T16:13:52;21.10;1.00
262;DHT22;114;48.260;10.988;2022-09-01T16:16:30;20.90;1.00
262;DHT22;114;48.260;10.988;2022-09-01T16:19:07;20.80;1.00
262;DHT22;114;48.260;10.988;2022-09-01T16:24:11;20.60;1.00
262;DHT22;114;48.260;10.988;2022-09-01T16:26:39;20.60;1.00
262;DHT22;114;48.260;10.988;2022-09-01T16:29:20;20.50;1.00
262;DHT22;114;48.260;10.988;2022-09-01T16:31:54;20.40;1.00
262;DHT22;114;48.260;10.988;2022-09-01T16:34:21;20.20;1.00
262;DHT22;114;48.260;10.988;2022-09-01T16:39:43;20.00;1.00
262;DHT22;114;48.260;10.988;2022-09-01T16:47:52;19.80;1.00
262;DHT22;114;48.260;10.988;2022-09-01T17:03:55;19.40;1.00
262;DHT22;114;48.260;10.988;2022-09-01T17:06:31;19.30;1.00
262;DHT22;114;48.260;10.988;2022-09-01T17:09:20;19.30;1.00
262;DHT22;114;48.260;10.988;2022-09-01T17:11:52;19.20;1.00
262;DHT22;114;48.260;10.988;2022-09-01T17:14:36;19.10;1.00
262;DHT22;114;48.260;10.988;2022-09-01T17:17:10;19.00;1.00
262;DHT22;114;48.260;10.988;2022-09-01T17:19:45;18.90;1.00
262;DHT22;114;48.260;10.988;2022-09-01T17:22:17;18.70;1.00
262;DHT22;114;48.260;10.988;2022-09-01T17:24:48;18.60;1.00
262;DHT22;114;48.260;10.988;2022-09-01T17:27:26;18.50;1.00
262;DHT22;114;48.260;10.988;2022-09-01T17:29:54;18.50;1.00
262;DHT22;114;48.260;10.988;2022-09-01T17:35:14;18.20;1.00
262;DHT22;114;48.260;10.988;2022-09-01T17:38:08;18.10;1.00
262;DHT22;114;48.260;10.988;2022-09-01T17:43:38;17.80;1.00
262;DHT22;114;48.260;10.988;2022-09-01T17:49:02;17.60;1.00
262;DHT22;114;48.260;10.988;2022-09-01T17:52:07;17.50;1.00
262;DHT22;114;48.260;10.988;2022-09-01T17:55:02;17.40;1.00
262;DHT22;114;48.260;10.988;2022-09-01T18:00:07;17.10;1.00
262;DHT22;114;48.260;10.988;2022-09-01T18:06:25;16.90;1.00
262;DHT22;114;48.260;10.988;2022-09-01T18:08:56;16.80;1.00
262;DHT22;114;48.260;10.988;2022-09-01T18:14:23;16.60;1.00
262;DHT22;114;48.260;10.988;2022-09-01T18:16:56;16.60;1.00
262;DHT22;114;48.260;10.988;2022-09-01T18:19:45;16.50;1.00
262;DHT22;114;48.260;10.988;2022-09-01T18:22:16;16.40;1.00
262;DHT22;114;48.260;10.988;2022-09-01T18:27:19;16.30;1.00
262;DHT22;114;48.260;10.988;2022-09-01T18:29:51;16.20;1.00